sensor_id;sensor_type;location;lat;lon;timestamp;P1;durP1;ratioP1;P2;durP2;ratioP2
11078;SDS011;5592;49.234;7.268;2022-12-18T00:00:29;38.83;;;12.27;;
11078;SDS011;5592;49.234;7.268;2022-12-18T00:02:55;29.30;;;10.87;;
11078;SDS011;5592;49.234;7.268;2022-12-18T00:05:21;25.73;;;10.80;;
11078;SDS011;5592;49.234;7.268;2022-12-18T00:07:46;30.30;;;12.00;;
11078;SDS011;5592;49.234;7.268;2022-12-18T00:10:12;28.67;;;10.93;;
11078;SDS011;5592;49.234;7.268;2022-12-18T00:12:37;24.67;;;10.70;;
11078;SDS011;5592;49.234;7.268;2022-12-18T00:15:03;29.97;;;11.53;;
11078;SDS011;5592;49.234;7.268;2022-12-18T00:17:29;29.17;;;12.20;;
11078;SDS011;5592;49.234;7.268;2022-12-18T00:19:54;41.07;;;13.57;;
11078;SDS011;5592;49.234;7.268;2022-12-18T00:22:20;30.87;;;12.57;;
11078;SDS011;5592;49.234;7.268;2022-12-18T00:24:46;32.60;;;11.37;;
11078;SDS011;5592;49.234;7.268;2022-12-18T00:27:11;28.30;;;12.03;;
11078;SDS011;5592;49.234;7.268;2022-12-18T00:29:37;31.70;;;12.60;;
11078;SDS011;5592;49.234;7.268;2022-12-18T00:32:02;32.60;;;12.57;;
11078;SDS011;5592;49.234;7.268;2022-12-18T00:34:28;29.97;;;12.23;;
11078;SDS011;5592;49.234;7.268;2022-12-18T00:36:53;40.83;;;14.10;;
11078;SDS011;5592;49.234;7.268;2022-12-18T00:39:19;32.20;;;12.70;;
11078;SDS011;5592;49.234;7.268;2022-12-18T00:41:45;39.03;;;14.07;;
11078;SDS011;5592;49.234;7.268;2022-12-18T00:44:29;40.77;;;12.87;;
11078;SDS011;5592;49.234;7.268;2022-12-18T00:46:55;28.23;;;12.00;;
11078;SDS011;5592;49.234;7.268;2022-12-18T00:49:20;36.80;;;12.07;;
11078;SDS011;5592;49.234;7.268;2022-12-18T00:51:46;28.70;;;12.40;;
11078;SDS011;5592;49.234;7.268;2022-12-18T00:54:13;31.40;;;11.70;;
11078;SDS011;5592;49.234;7.268;2022-12-18T00:56:39;30.80;;;13.33;;
11078;SDS011;5592;49.234;7.268;2022-12-18T00:59:05;36.27;;;12.93;;
11078;SDS011;5592;49.234;7.268;2022-12-18T01:01:31;29.80;;;12.27;;
11078;SDS011;5592;49.234;7.268;2022-12-18T01:03:57;31.40;;;12.60;;
11078;SDS011;5592;49.234;7.268;2022-12-18T01:06:24;29.93;;;13.57;;
11078;SDS011;5592;49.234;7.268;2022-12-18T01:08:49;30.50;;;13.03;;
11078;SDS011;5592;49.234;7.268;2022-12-18T01:11:16;27.97;;;12.80;;
11078;SDS011;5592;49.234;7.268;2022-12-18T01:13:44;31.63;;;14.07;;
11078;SDS011;5592;49.234;7.268;2022-12-18T01:16:13;37.07;;;14.43;;
11078;SDS011;5592;49.234;7.268;2022-12-18T01:18:39;38.60;;;14.10;;
11078;SDS011;5592;49.234;7.268;2022-12-18T01:21:08;36.33;;;14.33;;
11078;SDS011;5592;49.234;7.268;2022-12-18T01:23:36;30.23;;;13.20;;
11078;SDS011;5592;49.234;7.268;2022-12-18T01:26:07;28.00;;;12.67;;
11078;SDS011;5592;49.234;7.268;2022-12-18T01:28:34;39.80;;;14.37;;
11078;SDS011;5592;49.234;7.268;2022-12-18T01:31:10;33.57;;;13.90;;
11078;SDS011;5592;49.234;7.268;2022-12-18T01:33:42;33.40;;;12.90;;
11078;SDS011;5592;49.234;7.268;2022-12-18T01:36:08;31.50;;;13.40;;
11078;SDS011;5592;49.234;7.268;2022-12-18T01:38:39;36.33;;;14.40;;
11078;SDS011;5592;49.234;7.268;2022-12-18T01:41:04;33.33;;;15.10;;
11078;SDS011;5592;49.234;7.268;2022-12-18T01:46:20;37.10;;;14.23;;
11078;SDS011;5592;49.234;7.268;2022-12-18T01:48:52;36.23;;;14.57;;
11078;SDS011;5592;49.234;7.268;2022-12-18T01:51:20;34.47;;;14.33;;
11078;SDS011;5592;49.234;7.268;2022-12-18T01:53:47;38.43;;;15.77;;
11078;SDS011;5592;49.234;7.268;2022-12-18T01:56:15;33.40;;;13.50;;
11078;SDS011;5592;49.234;7.268;2022-12-18T01:58:51;35.43;;;14.10;;
11078;SDS011;5592;49.234;7.268;2022-12-18T02:01:29;35.80;;;13.93;;
11078;SDS011;5592;49.234;7.268;2022-12-18T02:06:48;34.00;;;13.00;;
11078;SDS011;5592;49.234;7.268;2022-12-18T02:09:50;35.63;;;13.50;;
11078;SDS011;5592;49.234;7.268;2022-12-18T02:12:24;30.97;;;12.50;;
11078;SDS011;5592;49.234;7.268;2022-12-18T02:14:58;34.17;;;14.53;;
11078;SDS011;5592;49.234;7.268;2022-12-18T02:17:32;32.17;;;13.77;;
11078;SDS011;5592;49.234;7.268;2022-12-18T02:23:01;35.20;;;14.37;;
11078;SDS011;5592;49.234;7.268;2022-12-18T02:28:20;27.80;;;11.80;;
11078;SDS011;5592;49.234;7.268;2022-12-18T02:30:50;32.63;;;11.30;;
11078;SDS011;5592;49.234;7.268;2022-12-18T02:33:18;30.53;;;12.00;;
11078;SDS011;5592;49.234;7.268;2022-12-18T02:35:46;33.33;;;13.70;;
11078;SDS011;5592;49.234;7.268;2022-12-18T02:38:13;32.67;;;14.10;;
11078;SDS011;5592;49.234;7.268;2022-12-18T02:40:40;28.40;;;11.33;;
11078;SDS011;5592;49.234;7.268;2022-12-18T02:43:09;27.50;;;13.30;;
11078;SDS011;5592;49.234;7.268;2022-12-18T02:45:46;26.93;;;13.23;;
11078;SDS011;5592;49.234;7.268;2022-12-18T02:48:24;31.40;;;12.30;;
11078;SDS011;5592;49.234;7.268;2022-12-18T02:51:08;31.97;;;11.77;;
11078;SDS011;5592;49.234;7.268;2022-12-18T02:53:53;29.67;;;13.27;;
11078;SDS011;5592;49.234;7.268;2022-12-18T02:56:29;30.13;;;12.77;;
11078;SDS011;5592;49.234;7.268;2022-12-18T02:59:13;32.27;;;13.97;;
11078;SDS011;5592;49.234;7.268;2022-12-18T03:01:59;30.47;;;11.57;;
11078;SDS011;5592;49.234;7.268;2022-12-18T03:04:38;33.73;;;12.47;;
11078;SDS011;5592;49.234;7.268;2022-12-18T03:07:14;30.50;;;12.43;;
11078;SDS011;5592;49.234;7.268;2022-12-18T03:09:45;26.43;;;11.27;;
11078;SDS011;5592;49.234;7.268;2022-12-18T03:12:19;30.63;;;11.87;;
11078;SDS011;5592;49.234;7.268;2022-12-18T03:17:30;27.60;;;11.40;;
11078;SDS011;5592;49.234;7.268;2022-12-18T03:19:58;31.47;;;11.90;;
11078;SDS011;5592;49.234;7.268;2022-12-18T03:22:30;30.37;;;13.87;;
11078;SDS011;5592;49.234;7.268;2022-12-18T03:24:57;26.70;;;12.03;;
11078;SDS011;5592;49.234;7.268;2022-12-18T03:27:25;28.50;;;12.53;;
11078;SDS011;5592;49.234;7.268;2022-12-18T03:30:04;29.53;;;12.00;;
11078;SDS011;5592;49.234;7.268;2022-12-18T03:32:34;35.63;;;13.20;;
11078;SDS011;5592;49.234;7.268;2022-12-18T03:35:13;36.40;;;12.30;;
11078;SDS011;5592;49.234;7.268;2022-12-18T03:37:41;33.30;;;12.87;;
11078;SDS011;5592;49.234;7.268;2022-12-18T03:40:07;33.00;;;13.10;;
11078;SDS011;5592;49.234;7.268;2022-12-18T03:45:23;31.93;;;12.10;;
11078;SDS011;5592;49.234;7.268;2022-12-18T03:48:03;25.60;;;10.93;;
11078;SDS011;5592;49.234;7.268;2022-12-18T03:50:56;28.47;;;10.47;;
11078;SDS011;5592;49.234;7.268;2022-12-18T03:53:39;27.27;;;10.43;;
11078;SDS011;5592;49.234;7.268;2022-12-18T03:56:22;30.37;;;12.00;;
11078;SDS011;5592;49.234;7.268;2022-12-18T03:58:52;22.90;;;10.27;;
11078;SDS011;5592;49.234;7.268;2022-12-18T04:01:18;34.43;;;11.70;;
11078;SDS011;5592;49.234;7.268;2022-12-18T04:03:48;27.60;;;11.23;;
11078;SDS011;5592;49.234;7.268;2022-12-18T04:06:15;34.83;;;11.80;;
11078;SDS011;5592;49.234;7.268;2022-12-18T04:08:42;27.97;;;11.73;;
11078;SDS011;5592;49.234;7.268;2022-12-18T04:11:08;28.93;;;10.60;;
11078;SDS011;5592;49.234;7.268;2022-12-18T04:13:35;27.60;;;12.80;;
11078;SDS011;5592;49.234;7.268;2022-12-18T04:16:01;24.10;;;10.80;;
11078;SDS011;5592;49.234;7.268;2022-12-18T04:18:27;24.47;;;10.50;;
11078;SDS011;5592;49.234;7.268;2022-12-18T04:20:53;28.93;;;11.20;;
11078;SDS011;5592;49.234;7.268;2022-12-18T04:23:18;25.77;;;10.87;;
11078;SDS011;5592;49.234;7.268;2022-12-18T04:25:45;29.47;;;11.30;;
11078;SDS011;5592;49.234;7.268;2022-12-18T04:28:11;27.70;;;11.53;;
11078;SDS011;5592;49.234;7.268;2022-12-18T04:30:37;35.90;;;13.00;;
11078;SDS011;5592;49.234;7.268;2022-12-18T04:33:03;39.40;;;13.40;;
11078;SDS011;5592;49.234;7.268;2022-12-18T04:35:28;25.00;;;10.50;;
11078;SDS011;5592;49.234;7.268;2022-12-18T04:37:55;30.37;;;12.10;;
11078;SDS011;5592;49.234;7.268;2022-12-18T04:40:20;28.43;;;10.63;;
11078;SDS011;5592;49.234;7.268;2022-12-18T04:42:46;31.23;;;11.40;;
11078;SDS011;5592;49.234;7.268;2022-12-18T04:45:12;31.00;;;11.20;;
11078;SDS011;5592;49.234;7.268;2022-12-18T04:47:37;30.13;;;11.50;;
11078;SDS011;5592;49.234;7.268;2022-12-18T04:50:03;23.77;;;10.90;;
11078;SDS011;5592;49.234;7.268;2022-12-18T04:52:30;28.67;;;11.90;;
11078;SDS011;5592;49.234;7.268;2022-12-18T04:54:56;29.43;;;9.90;;
11078;SDS011;5592;49.234;7.268;2022-12-18T04:57:21;33.77;;;12.00;;
11078;SDS011;5592;49.234;7.268;2022-12-18T04:59:47;33.03;;;12.03;;
11078;SDS011;5592;49.234;7.268;2022-12-18T05:02:12;22.30;;;10.90;;
11078;SDS011;5592;49.234;7.268;2022-12-18T05:04:38;33.30;;;12.47;;
11078;SDS011;5592;49.234;7.268;2022-12-18T05:07:04;22.33;;;11.40;;
11078;SDS011;5592;49.234;7.268;2022-12-18T05:09:29;30.63;;;11.13;;
11078;SDS011;5592;49.234;7.268;2022-12-18T05:11:55;29.87;;;12.23;;
11078;SDS011;5592;49.234;7.268;2022-12-18T05:14:21;32.57;;;11.80;;
11078;SDS011;5592;49.234;7.268;2022-12-18T05:16:46;31.93;;;11.70;;
11078;SDS011;5592;49.234;7.268;2022-12-18T05:19:12;28.03;;;8.63;;
11078;SDS011;5592;49.234;7.268;2022-12-18T05:21:37;31.50;;;10.90;;
11078;SDS011;5592;49.234;7.268;2022-12-18T05:24:03;24.87;;;11.43;;
11078;SDS011;5592;49.234;7.268;2022-12-18T05:26:29;27.70;;;12.10;;
11078;SDS011;5592;49.234;7.268;2022-12-18T05:28:56;24.77;;;10.07;;
11078;SDS011;5592;49.234;7.268;2022-12-18T05:31:21;27.20;;;12.50;;
11078;SDS011;5592;49.234;7.268;2022-12-18T05:33:48;28.07;;;12.07;;
11078;SDS011;5592;49.234;7.268;2022-12-18T05:36:14;33.27;;;13.10;;
11078;SDS011;5592;49.234;7.268;2022-12-18T05:38:40;28.17;;;10.50;;
11078;SDS011;5592;49.234;7.268;2022-12-18T05:41:06;29.53;;;12.97;;
11078;SDS011;5592;49.234;7.268;2022-12-18T05:43:36;23.60;;;10.03;;
11078;SDS011;5592;49.234;7.268;2022-12-18T05:46:04;23.53;;;10.30;;
11078;SDS011;5592;49.234;7.268;2022-12-18T05:48:36;25.87;;;9.33;;
11078;SDS011;5592;49.234;7.268;2022-12-18T05:51:06;24.00;;;11.53;;
11078;SDS011;5592;49.234;7.268;2022-12-18T05:53:33;27.43;;;10.33;;
11078;SDS011;5592;49.234;7.268;2022-12-18T05:56:00;25.33;;;11.60;;
11078;SDS011;5592;49.234;7.268;2022-12-18T05:58:28;23.87;;;11.27;;
11078;SDS011;5592;49.234;7.268;2022-12-18T06:00:54;24.77;;;11.13;;
11078;SDS011;5592;49.234;7.268;2022-12-18T06:03:19;22.80;;;10.40;;
11078;SDS011;5592;49.234;7.268;2022-12-18T06:05:45;29.10;;;11.83;;
11078;SDS011;5592;49.234;7.268;2022-12-18T06:08:11;26.80;;;11.40;;
11078;SDS011;5592;49.234;7.268;2022-12-18T06:10:38;23.90;;;10.70;;
11078;SDS011;5592;49.234;7.268;2022-12-18T06:13:04;39.10;;;11.57;;
11078;SDS011;5592;49.234;7.268;2022-12-18T06:15:30;31.13;;;10.80;;
11078;SDS011;5592;49.234;7.268;2022-12-18T06:17:56;29.77;;;12.00;;
11078;SDS011;5592;49.234;7.268;2022-12-18T06:20:22;33.00;;;11.17;;
11078;SDS011;5592;49.234;7.268;2022-12-18T06:22:48;18.33;;;9.07;;
11078;SDS011;5592;49.234;7.268;2022-12-18T06:25:13;31.60;;;11.87;;
11078;SDS011;5592;49.234;7.268;2022-12-18T06:27:39;30.77;;;11.63;;
11078;SDS011;5592;49.234;7.268;2022-12-18T06:30:05;21.60;;;10.10;;
11078;SDS011;5592;49.234;7.268;2022-12-18T06:32:31;23.60;;;10.30;;
11078;SDS011;5592;49.234;7.268;2022-12-18T06:34:57;25.33;;;9.67;;
11078;SDS011;5592;49.234;7.268;2022-12-18T06:37:22;27.30;;;11.17;;
11078;SDS011;5592;49.234;7.268;2022-12-18T06:39:51;28.20;;;11.37;;
11078;SDS011;5592;49.234;7.268;2022-12-18T06:42:21;27.70;;;10.07;;
11078;SDS011;5592;49.234;7.268;2022-12-18T06:44:47;25.50;;;11.17;;
11078;SDS011;5592;49.234;7.268;2022-12-18T06:47:13;21.27;;;9.53;;
11078;SDS011;5592;49.234;7.268;2022-12-18T06:49:38;26.03;;;11.30;;
11078;SDS011;5592;49.234;7.268;2022-12-18T06:52:04;32.03;;;13.00;;
11078;SDS011;5592;49.234;7.268;2022-12-18T06:54:29;28.87;;;11.87;;
11078;SDS011;5592;49.234;7.268;2022-12-18T06:56:55;30.83;;;11.27;;
11078;SDS011;5592;49.234;7.268;2022-12-18T06:59:21;24.80;;;10.97;;
11078;SDS011;5592;49.234;7.268;2022-12-18T07:01:46;32.17;;;11.03;;
11078;SDS011;5592;49.234;7.268;2022-12-18T07:04:12;21.80;;;10.07;;
11078;SDS011;5592;49.234;7.268;2022-12-18T07:06:38;28.63;;;10.87;;
11078;SDS011;5592;49.234;7.268;2022-12-18T07:09:03;31.83;;;12.00;;
11078;SDS011;5592;49.234;7.268;2022-12-18T07:11:29;25.27;;;11.77;;
11078;SDS011;5592;49.234;7.268;2022-12-18T07:13:57;28.13;;;11.20;;
11078;SDS011;5592;49.234;7.268;2022-12-18T07:16:23;22.53;;;9.23;;
11078;SDS011;5592;49.234;7.268;2022-12-18T07:18:48;28.23;;;12.10;;
11078;SDS011;5592;49.234;7.268;2022-12-18T07:21:17;32.50;;;12.87;;
11078;SDS011;5592;49.234;7.268;2022-12-18T07:23:44;32.97;;;11.43;;
11078;SDS011;5592;49.234;7.268;2022-12-18T07:26:12;26.20;;;10.30;;
11078;SDS011;5592;49.234;7.268;2022-12-18T07:28:40;24.37;;;9.80;;
11078;SDS011;5592;49.234;7.268;2022-12-18T07:31:07;25.20;;;11.97;;
11078;SDS011;5592;49.234;7.268;2022-12-18T07:33:34;25.20;;;9.77;;
11078;SDS011;5592;49.234;7.268;2022-12-18T07:36:01;30.77;;;11.00;;
11078;SDS011;5592;49.234;7.268;2022-12-18T07:38:29;28.07;;;10.93;;
11078;SDS011;5592;49.234;7.268;2022-12-18T07:40:59;27.87;;;10.10;;
11078;SDS011;5592;49.234;7.268;2022-12-18T07:43:29;29.30;;;10.17;;
11078;SDS011;5592;49.234;7.268;2022-12-18T07:45:55;27.03;;;10.80;;
11078;SDS011;5592;49.234;7.268;2022-12-18T07:48:20;26.33;;;10.73;;
11078;SDS011;5592;49.234;7.268;2022-12-18T07:50:46;26.13;;;11.67;;
11078;SDS011;5592;49.234;7.268;2022-12-18T07:53:11;28.03;;;12.60;;
11078;SDS011;5592;49.234;7.268;2022-12-18T07:55:37;29.80;;;11.60;;
11078;SDS011;5592;49.234;7.268;2022-12-18T07:58:03;21.77;;;10.93;;
11078;SDS011;5592;49.234;7.268;2022-12-18T08:00:29;27.20;;;12.00;;
11078;SDS011;5592;49.234;7.268;2022-12-18T08:02:56;32.13;;;13.60;;
11078;SDS011;5592;49.234;7.268;2022-12-18T08:05:22;35.80;;;13.60;;
11078;SDS011;5592;49.234;7.268;2022-12-18T08:07:47;30.20;;;13.77;;
11078;SDS011;5592;49.234;7.268;2022-12-18T08:10:13;40.17;;;14.63;;
11078;SDS011;5592;49.234;7.268;2022-12-18T08:12:39;34.20;;;14.10;;
11078;SDS011;5592;49.234;7.268;2022-12-18T08:15:04;32.87;;;13.00;;
11078;SDS011;5592;49.234;7.268;2022-12-18T08:17:31;30.27;;;14.73;;
11078;SDS011;5592;49.234;7.268;2022-12-18T08:19:59;32.30;;;12.97;;
11078;SDS011;5592;49.234;7.268;2022-12-18T08:22:25;28.80;;;13.23;;
11078;SDS011;5592;49.234;7.268;2022-12-18T08:24:50;38.60;;;14.63;;
11078;SDS011;5592;49.234;7.268;2022-12-18T08:27:16;28.67;;;13.70;;
11078;SDS011;5592;49.234;7.268;2022-12-18T08:29:42;32.47;;;13.73;;
11078;SDS011;5592;49.234;7.268;2022-12-18T08:32:07;31.77;;;13.70;;
11078;SDS011;5592;49.234;7.268;2022-12-18T08:34:33;34.60;;;13.50;;
11078;SDS011;5592;49.234;7.268;2022-12-18T08:36:59;22.17;;;11.63;;
11078;SDS011;5592;49.234;7.268;2022-12-18T08:39:24;29.23;;;13.13;;
11078;SDS011;5592;49.234;7.268;2022-12-18T08:41:50;34.00;;;13.30;;
11078;SDS011;5592;49.234;7.268;2022-12-18T08:44:45;31.47;;;13.20;;
11078;SDS011;5592;49.234;7.268;2022-12-18T08:47:10;33.10;;;14.70;;
11078;SDS011;5592;49.234;7.268;2022-12-18T08:49:36;27.60;;;13.10;;
11078;SDS011;5592;49.234;7.268;2022-12-18T08:52:02;30.53;;;13.00;;
11078;SDS011;5592;49.234;7.268;2022-12-18T08:54:28;32.90;;;11.83;;
11078;SDS011;5592;49.234;7.268;2022-12-18T08:56:54;33.00;;;14.67;;
11078;SDS011;5592;49.234;7.268;2022-12-18T08:59:19;31.90;;;14.20;;
11078;SDS011;5592;49.234;7.268;2022-12-18T09:01:45;34.37;;;13.80;;
11078;SDS011;5592;49.234;7.268;2022-12-18T09:04:12;30.27;;;14.37;;
11078;SDS011;5592;49.234;7.268;2022-12-18T09:06:38;33.37;;;13.97;;
11078;SDS011;5592;49.234;7.268;2022-12-18T09:09:09;32.93;;;14.20;;
11078;SDS011;5592;49.234;7.268;2022-12-18T09:11:35;37.27;;;16.87;;
11078;SDS011;5592;49.234;7.268;2022-12-18T09:14:01;35.03;;;14.30;;
11078;SDS011;5592;49.234;7.268;2022-12-18T09:16:27;33.47;;;14.77;;
11078;SDS011;5592;49.234;7.268;2022-12-18T09:18:57;32.70;;;13.70;;
11078;SDS011;5592;49.234;7.268;2022-12-18T09:21:30;28.70;;;14.33;;
11078;SDS011;5592;49.234;7.268;2022-12-18T09:23:57;36.43;;;16.13;;
11078;SDS011;5592;49.234;7.268;2022-12-18T09:26:24;32.67;;;13.83;;
11078;SDS011;5592;49.234;7.268;2022-12-18T09:28:50;34.73;;;15.40;;
11078;SDS011;5592;49.234;7.268;2022-12-18T09:31:17;35.23;;;15.50;;
11078;SDS011;5592;49.234;7.268;2022-12-18T09:33:44;36.20;;;15.90;;
11078;SDS011;5592;49.234;7.268;2022-12-18T09:36:14;33.30;;;15.40;;
11078;SDS011;5592;49.234;7.268;2022-12-18T09:38:41;42.87;;;16.63;;
11078;SDS011;5592;49.234;7.268;2022-12-18T09:46:38;39.47;;;16.80;;
11078;SDS011;5592;49.234;7.268;2022-12-18T09:49:11;42.33;;;19.13;;
11078;SDS011;5592;49.234;7.268;2022-12-18T09:51:41;44.13;;;19.53;;
11078;SDS011;5592;49.234;7.268;2022-12-18T09:54:36;42.50;;;18.43;;
11078;SDS011;5592;49.234;7.268;2022-12-18T09:57:04;42.07;;;19.30;;
11078;SDS011;5592;49.234;7.268;2022-12-18T09:59:31;39.03;;;17.90;;
11078;SDS011;5592;49.234;7.268;2022-12-18T10:02:13;57.60;;;22.13;;
11078;SDS011;5592;49.234;7.268;2022-12-18T10:04:44;49.27;;;20.10;;
11078;SDS011;5592;49.234;7.268;2022-12-18T10:07:35;46.10;;;18.80;;
11078;SDS011;5592;49.234;7.268;2022-12-18T10:10:13;43.17;;;18.20;;
11078;SDS011;5592;49.234;7.268;2022-12-18T10:12:53;49.83;;;19.83;;
11078;SDS011;5592;49.234;7.268;2022-12-18T10:15:43;46.93;;;21.13;;
11078;SDS011;5592;49.234;7.268;2022-12-18T10:21:05;46.20;;;17.80;;
11078;SDS011;5592;49.234;7.268;2022-12-18T10:26:41;44.63;;;19.67;;
11078;SDS011;5592;49.234;7.268;2022-12-18T10:29:11;55.23;;;19.87;;
11078;SDS011;5592;49.234;7.268;2022-12-18T10:31:38;41.37;;;19.30;;
11078;SDS011;5592;49.234;7.268;2022-12-18T10:34:03;45.33;;;18.90;;
11078;SDS011;5592;49.234;7.268;2022-12-18T10:36:29;48.83;;;19.93;;
11078;SDS011;5592;49.234;7.268;2022-12-18T10:39:03;42.10;;;18.77;;
11078;SDS011;5592;49.234;7.268;2022-12-18T10:41:40;41.60;;;19.50;;
11078;SDS011;5592;49.234;7.268;2022-12-18T10:44:10;44.17;;;20.80;;
11078;SDS011;5592;49.234;7.268;2022-12-18T10:46:40;40.67;;;19.90;;
11078;SDS011;5592;49.234;7.268;2022-12-18T10:49:17;45.73;;;18.57;;
11078;SDS011;5592;49.234;7.268;2022-12-18T10:51:48;45.20;;;20.57;;
11078;SDS011;5592;49.234;7.268;2022-12-18T10:56:40;56.00;;;20.97;;
11078;SDS011;5592;49.234;7.268;2022-12-18T10:59:07;46.97;;;21.57;;
11078;SDS011;5592;49.234;7.268;2022-12-18T11:04:23;47.63;;;20.90;;
11078;SDS011;5592;49.234;7.268;2022-12-18T11:09:32;42.50;;;21.50;;
11078;SDS011;5592;49.234;7.268;2022-12-18T11:12:03;44.73;;;20.00;;
11078;SDS011;5592;49.234;7.268;2022-12-18T11:14:43;44.50;;;18.33;;
11078;SDS011;5592;49.234;7.268;2022-12-18T11:17:21;48.13;;;20.30;;
11078;SDS011;5592;49.234;7.268;2022-12-18T11:19:53;43.50;;;19.67;;
11078;SDS011;5592;49.234;7.268;2022-12-18T11:27:24;49.27;;;20.87;;
11078;SDS011;5592;49.234;7.268;2022-12-18T11:29:50;38.73;;;16.33;;
11078;SDS011;5592;49.234;7.268;2022-12-18T11:35:03;37.77;;;17.63;;
11078;SDS011;5592;49.234;7.268;2022-12-18T11:37:39;40.53;;;18.73;;
11078;SDS011;5592;49.234;7.268;2022-12-18T11:40:13;42.10;;;18.47;;
11078;SDS011;5592;49.234;7.268;2022-12-18T11:42:45;43.20;;;19.43;;
11078;SDS011;5592;49.234;7.268;2022-12-18T11:48:09;41.80;;;18.87;;
11078;SDS011;5592;49.234;7.268;2022-12-18T11:50:50;38.03;;;19.67;;
11078;SDS011;5592;49.234;7.268;2022-12-18T11:53:17;41.33;;;18.53;;
11078;SDS011;5592;49.234;7.268;2022-12-18T11:55:53;37.20;;;18.40;;
11078;SDS011;5592;49.234;7.268;2022-12-18T12:04:00;41.10;;;17.90;;
11078;SDS011;5592;49.234;7.268;2022-12-18T12:06:51;42.00;;;19.03;;
11078;SDS011;5592;49.234;7.268;2022-12-18T12:20:26;40.00;;;18.53;;
11078;SDS011;5592;49.234;7.268;2022-12-18T12:26:05;44.57;;;21.90;;
11078;SDS011;5592;49.234;7.268;2022-12-18T12:28:59;43.47;;;20.60;;
11078;SDS011;5592;49.234;7.268;2022-12-18T12:34:16;47.10;;;22.20;;
11078;SDS011;5592;49.234;7.268;2022-12-18T12:39:39;46.20;;;19.80;;
11078;SDS011;5592;49.234;7.268;2022-12-18T12:51:13;39.50;;;20.27;;
11078;SDS011;5592;49.234;7.268;2022-12-18T12:53:43;51.87;;;21.30;;
11078;SDS011;5592;49.234;7.268;2022-12-18T12:56:11;45.73;;;21.63;;
11078;SDS011;5592;49.234;7.268;2022-12-18T12:58:46;47.60;;;23.40;;
11078;SDS011;5592;49.234;7.268;2022-12-18T13:07:35;40.93;;;19.90;;
11078;SDS011;5592;49.234;7.268;2022-12-18T13:23:04;41.50;;;19.67;;
11078;SDS011;5592;49.234;7.268;2022-12-18T13:25:44;42.67;;;18.07;;
11078;SDS011;5592;49.234;7.268;2022-12-18T13:28:11;39.50;;;18.37;;
11078;SDS011;5592;49.234;7.268;2022-12-18T13:30:56;51.30;;;20.37;;
11078;SDS011;5592;49.234;7.268;2022-12-18T13:36:13;42.93;;;19.40;;
11078;SDS011;5592;49.234;7.268;2022-12-18T13:38:42;42.37;;;17.87;;
11078;SDS011;5592;49.234;7.268;2022-12-18T13:43:44;45.80;;;19.17;;
11078;SDS011;5592;49.234;7.268;2022-12-18T13:46:30;39.57;;;18.23;;
11078;SDS011;5592;49.234;7.268;2022-12-18T13:51:41;47.53;;;20.53;;
11078;SDS011;5592;49.234;7.268;2022-12-18T13:57:00;41.83;;;19.40;;
11078;SDS011;5592;49.234;7.268;2022-12-18T13:59:33;39.93;;;19.50;;
11078;SDS011;5592;49.234;7.268;2022-12-18T14:02:13;41.90;;;18.80;;
11078;SDS011;5592;49.234;7.268;2022-12-18T14:04:40;39.60;;;19.00;;
11078;SDS011;5592;49.234;7.268;2022-12-18T14:07:13;43.40;;;19.70;;
11078;SDS011;5592;49.234;7.268;2022-12-18T14:09:45;41.00;;;18.83;;
11078;SDS011;5592;49.234;7.268;2022-12-18T14:12:20;37.90;;;18.43;;
11078;SDS011;5592;49.234;7.268;2022-12-18T14:21:17;45.20;;;20.50;;
11078;SDS011;5592;49.234;7.268;2022-12-18T14:23:48;44.30;;;21.00;;
11078;SDS011;5592;49.234;7.268;2022-12-18T14:28:48;46.90;;;18.97;;
11078;SDS011;5592;49.234;7.268;2022-12-18T14:31:22;45.60;;;19.97;;
11078;SDS011;5592;49.234;7.268;2022-12-18T14:33:49;48.97;;;20.47;;
11078;SDS011;5592;49.234;7.268;2022-12-18T14:36:16;45.20;;;19.83;;
11078;SDS011;5592;49.234;7.268;2022-12-18T14:38:50;46.83;;;20.10;;
11078;SDS011;5592;49.234;7.268;2022-12-18T14:41:18;43.47;;;19.30;;
11078;SDS011;5592;49.234;7.268;2022-12-18T14:43:46;39.57;;;19.33;;
11078;SDS011;5592;49.234;7.268;2022-12-18T14:48:54;47.50;;;19.77;;
11078;SDS011;5592;49.234;7.268;2022-12-18T14:51:21;53.10;;;21.80;;
11078;SDS011;5592;49.234;7.268;2022-12-18T14:53:55;51.10;;;21.70;;
11078;SDS011;5592;49.234;7.268;2022-12-18T14:56:27;49.83;;;19.67;;
11078;SDS011;5592;49.234;7.268;2022-12-18T14:58:58;52.97;;;18.97;;
11078;SDS011;5592;49.234;7.268;2022-12-18T15:04:43;43.80;;;19.30;;
11078;SDS011;5592;49.234;7.268;2022-12-18T15:07:13;51.73;;;21.40;;
11078;SDS011;5592;49.234;7.268;2022-12-18T15:09:42;45.30;;;20.57;;
11078;SDS011;5592;49.234;7.268;2022-12-18T15:13:15;45.57;;;20.13;;
11078;SDS011;5592;49.234;7.268;2022-12-18T15:15:43;43.80;;;18.60;;
11078;SDS011;5592;49.234;7.268;2022-12-18T15:20:41;38.47;;;17.63;;
11078;SDS011;5592;49.234;7.268;2022-12-18T15:23:28;50.63;;;21.90;;
11078;SDS011;5592;49.234;7.268;2022-12-18T15:26:16;52.13;;;21.23;;
11078;SDS011;5592;49.234;7.268;2022-12-18T15:28:54;49.43;;;20.47;;
11078;SDS011;5592;49.234;7.268;2022-12-18T15:36:18;50.50;;;20.80;;
11078;SDS011;5592;49.234;7.268;2022-12-18T15:38:49;43.53;;;20.17;;
11078;SDS011;5592;49.234;7.268;2022-12-18T15:41:17;46.27;;;18.97;;
11078;SDS011;5592;49.234;7.268;2022-12-18T15:43:47;50.50;;;20.73;;
11078;SDS011;5592;49.234;7.268;2022-12-18T15:46:18;50.83;;;19.93;;
11078;SDS011;5592;49.234;7.268;2022-12-18T15:48:50;45.33;;;20.00;;
11078;SDS011;5592;49.234;7.268;2022-12-18T15:53:53;41.80;;;19.57;;
11078;SDS011;5592;49.234;7.268;2022-12-18T15:56:21;46.47;;;19.63;;
11078;SDS011;5592;49.234;7.268;2022-12-18T15:59:13;55.20;;;20.67;;
11078;SDS011;5592;49.234;7.268;2022-12-18T16:01:40;53.90;;;19.50;;
11078;SDS011;5592;49.234;7.268;2022-12-18T16:04:09;44.07;;;19.30;;
11078;SDS011;5592;49.234;7.268;2022-12-18T16:06:37;51.57;;;20.10;;
11078;SDS011;5592;49.234;7.268;2022-12-18T16:09:02;48.87;;;19.97;;
11078;SDS011;5592;49.234;7.268;2022-12-18T16:11:29;45.63;;;19.93;;
11078;SDS011;5592;49.234;7.268;2022-12-18T16:16:40;46.97;;;20.00;;
11078;SDS011;5592;49.234;7.268;2022-12-18T16:19:06;53.37;;;19.80;;
11078;SDS011;5592;49.234;7.268;2022-12-18T16:21:32;46.90;;;20.30;;
11078;SDS011;5592;49.234;7.268;2022-12-18T16:23:58;41.27;;;18.77;;
11078;SDS011;5592;49.234;7.268;2022-12-18T16:26:23;39.50;;;17.50;;
11078;SDS011;5592;49.234;7.268;2022-12-18T16:28:49;47.30;;;18.63;;
11078;SDS011;5592;49.234;7.268;2022-12-18T16:31:14;50.77;;;18.27;;
11078;SDS011;5592;49.234;7.268;2022-12-18T16:33:40;43.53;;;20.10;;
11078;SDS011;5592;49.234;7.268;2022-12-18T16:36:06;45.73;;;19.37;;
11078;SDS011;5592;49.234;7.268;2022-12-18T16:38:32;41.53;;;17.70;;
11078;SDS011;5592;49.234;7.268;2022-12-18T16:41:01;45.87;;;19.13;;
11078;SDS011;5592;49.234;7.268;2022-12-18T16:43:58;44.97;;;18.67;;
11078;SDS011;5592;49.234;7.268;2022-12-18T16:46:24;37.80;;;18.00;;
11078;SDS011;5592;49.234;7.268;2022-12-18T16:48:50;37.77;;;16.77;;
11078;SDS011;5592;49.234;7.268;2022-12-18T16:51:16;44.13;;;19.83;;
11078;SDS011;5592;49.234;7.268;2022-12-18T16:53:41;39.10;;;18.83;;
11078;SDS011;5592;49.234;7.268;2022-12-18T16:56:07;37.30;;;18.90;;
11078;SDS011;5592;49.234;7.268;2022-12-18T16:58:33;44.93;;;18.47;;
11078;SDS011;5592;49.234;7.268;2022-12-18T17:00:59;43.50;;;18.10;;
11078;SDS011;5592;49.234;7.268;2022-12-18T17:03:24;42.40;;;18.27;;
11078;SDS011;5592;49.234;7.268;2022-12-18T17:05:50;47.90;;;18.70;;
11078;SDS011;5592;49.234;7.268;2022-12-18T17:08:16;42.27;;;18.30;;